createdAt,value
2019-04-28T00:01:04.050Z,14.11
2019-04-28T00:03:33.187Z,14.15
2019-04-28T00:06:02.252Z,14.15
2019-04-28T00:08:31.885Z,14.18
2019-04-28T00:11:01.751Z,14.21
2019-04-28T00:13:32.124Z,14.19
2019-04-28T00:16:01.718Z,14.14
2019-04-28T00:18:31.732Z,14.11
2019-04-28T00:21:20.915Z,14.08
2019-04-28T00:24:07.689Z,14.07
2019-04-28T00:26:41.626Z,13.95
2019-04-28T00:29:11.229Z,13.90
2019-04-28T00:31:41.344Z,13.87
2019-04-28T00:34:11.489Z,13.86
2019-04-28T00:36:43.067Z,13.81
2019-04-28T00:39:12.523Z,13.79
2019-04-28T00:41:42.114Z,13.80
2019-04-28T00:44:12.034Z,13.78
2019-04-28T00:46:42.095Z,13.73
2019-04-28T00:49:11.847Z,13.73
2019-04-28T00:51:41.604Z,13.71
2019-04-28T00:54:12.068Z,13.70
2019-04-28T00:56:41.969Z,13.69
2019-04-28T00:59:11.920Z,13.67
2019-04-28T01:01:47.164Z,13.69
2019-04-28T01:04:16.357Z,13.66
2019-04-28T01:06:45.419Z,13.67
2019-04-28T01:09:14.518Z,13.70
2019-04-28T01:11:43.641Z,13.71
2019-04-28T01:14:12.764Z,13.70
2019-04-28T01:16:47.774Z,13.68
2019-04-28T01:19:21.581Z,13.71
2019-04-28T01:22:13.029Z,13.70
2019-04-28T01:24:42.063Z,13.68
2019-04-28T01:27:30.434Z,13.53
2019-04-28T01:30:08.311Z,13.57
2019-04-28T01:32:41.394Z,13.57
2019-04-28T01:35:10.476Z,13.57
2019-04-28T01:37:40.715Z,13.58
2019-04-28T01:40:09.995Z,13.61
2019-04-28T01:42:41.063Z,13.59
2019-04-28T01:45:10.561Z,13.62
2019-04-28T01:47:40.455Z,13.61
2019-04-28T01:50:10.258Z,13.63
2019-04-28T01:52:40.103Z,13.61
2019-04-28T01:55:10.136Z,13.60
2019-04-28T01:57:39.982Z,13.58
2019-04-28T02:00:22.327Z,13.60
2019-04-28T02:02:41.754Z,13.60
2019-04-28T02:05:10.825Z,13.64
2019-04-28T02:07:40.761Z,13.65
2019-04-28T02:10:10.304Z,13.63
2019-04-28T02:12:40.303Z,13.63
2019-04-28T02:15:10.473Z,13.65
2019-04-28T02:17:40.265Z,13.68
2019-04-28T02:20:10.484Z,13.66
2019-04-28T02:23:10.677Z,13.69
2019-04-28T02:25:39.964Z,13.69
2019-04-28T02:28:09.418Z,13.68
2019-04-28T02:30:48.492Z,13.69
2019-04-28T02:33:11.198Z,13.72
2019-04-28T02:35:41.857Z,13.69
2019-04-28T02:38:11.556Z,13.68
2019-04-28T02:40:40.829Z,13.70
2019-04-28T02:43:11.423Z,13.70
2019-04-28T02:45:41.402Z,13.68
2019-04-28T02:48:15.915Z,13.68
2019-04-28T02:51:06.237Z,13.68
2019-04-28T02:53:40.658Z,13.69
2019-04-28T02:56:11.225Z,13.69
2019-04-28T02:58:41.626Z,13.70
2019-04-28T03:01:18.792Z,13.72
2019-04-28T03:03:41.344Z,13.68
2019-04-28T03:06:10.885Z,13.68
2019-04-28T03:08:40.631Z,13.69
2019-04-28T03:11:10.714Z,13.69
2019-04-28T03:13:41.248Z,13.68
2019-04-28T03:16:10.964Z,13.67
2019-04-28T03:18:41.306Z,13.66
2019-04-28T03:21:11.433Z,13.66
2019-04-28T03:23:40.732Z,13.65
2019-04-28T03:26:34.565Z,13.62
2019-04-28T03:29:20.632Z,13.63
2019-04-28T03:32:25.361Z,13.62
2019-04-28T03:34:45.715Z,13.64
2019-04-28T03:37:14.759Z,13.65
2019-04-28T03:39:43.810Z,13.64
2019-04-28T03:42:12.873Z,13.64
2019-04-28T03:44:41.916Z,13.61
2019-04-28T03:47:10.978Z,13.61
2019-04-28T03:49:43.236Z,13.64
2019-04-28T03:52:10.988Z,13.65
2019-04-28T03:54:40.995Z,13.60
2019-04-28T03:57:11.334Z,13.61
2019-04-28T03:59:43.511Z,13.60
2019-04-28T04:02:11.724Z,13.63
2019-04-28T04:04:43.443Z,13.64
2019-04-28T04:07:12.464Z,13.66
2019-04-28T04:09:55.200Z,13.70
2019-04-28T04:12:55.139Z,13.69
2019-04-28T04:15:43.145Z,13.71
2019-04-28T04:18:21.067Z,13.73
2019-04-28T04:20:51.236Z,13.77
2019-04-28T04:23:23.155Z,13.78
2019-04-28T04:25:51.435Z,13.77
2019-04-28T04:28:20.737Z,13.74
2019-04-28T04:30:50.769Z,13.77
2019-04-28T04:33:20.967Z,13.78
2019-04-28T04:35:51.604Z,13.77
2019-04-28T04:38:21.791Z,13.74
2019-04-28T04:40:51.602Z,13.75
2019-04-28T04:43:23.294Z,13.77
2019-04-28T04:45:54.984Z,13.77
2019-04-28T04:48:24.004Z,13.78
2019-04-28T04:50:53.041Z,13.78
2019-04-28T04:53:22.077Z,13.81
2019-04-28T04:55:52.723Z,13.85
2019-04-28T04:58:21.845Z,13.89
2019-04-28T05:01:10.477Z,13.95
2019-04-28T05:03:40.243Z,13.96
2019-04-28T05:06:29.801Z,13.94
2019-04-28T05:08:59.955Z,13.96
2019-04-28T05:11:29.990Z,13.98
2019-04-28T05:13:59.694Z,14.00
2019-04-28T05:16:29.792Z,14.02
2019-04-28T05:19:00.064Z,14.05
2019-04-28T05:21:33.180Z,14.07
2019-04-28T05:24:37.308Z,14.09
2019-04-28T05:27:06.411Z,14.12
2019-04-28T05:29:35.509Z,14.05
2019-04-28T05:32:04.574Z,14.00
2019-04-28T05:34:33.673Z,13.96
2019-04-28T05:37:02.771Z,13.97
2019-04-28T05:39:31.879Z,13.94
2019-04-28T05:42:01.139Z,13.97
2019-04-28T05:44:31.969Z,14.01
2019-04-28T05:47:01.015Z,14.03
2019-04-28T05:49:52.227Z,14.08
2019-04-28T05:52:40.340Z,14.14
2019-04-28T05:55:15.181Z,14.19
2019-04-28T05:57:53.091Z,14.14
2019-04-28T06:00:44.174Z,14.16
2019-04-28T06:03:14.706Z,14.18
2019-04-28T06:05:43.761Z,14.19
2019-04-28T06:08:44.037Z,14.21
2019-04-28T06:11:30.855Z,14.26
2019-04-28T06:14:00.141Z,14.19
2019-04-28T06:16:30.462Z,14.08
2019-04-28T06:19:00.199Z,14.07
2019-04-28T06:21:29.372Z,14.10
2019-04-28T06:23:58.513Z,14.11
2019-04-28T06:26:27.607Z,14.15
2019-04-28T06:28:56.749Z,14.18
2019-04-28T06:31:25.816Z,14.19
2019-04-28T06:33:54.867Z,14.20
2019-04-28T06:36:23.890Z,14.26
2019-04-28T06:38:53.057Z,14.27
2019-04-28T06:41:22.183Z,14.31
2019-04-28T06:43:51.255Z,14.34
2019-04-28T06:46:20.357Z,14.37
2019-04-28T06:48:49.391Z,13.19
2019-04-28T06:51:18.474Z,14.52
2019-04-28T06:53:47.630Z,14.62
2019-04-28T06:56:16.780Z,14.73
2019-04-28T06:58:58.202Z,14.80
2019-04-28T07:01:17.059Z,14.79
2019-04-28T07:03:46.106Z,14.82
2019-04-28T07:06:15.352Z,14.86
2019-04-28T07:08:44.448Z,14.97
2019-04-28T07:11:13.586Z,15.07
2019-04-28T07:13:42.755Z,15.18
2019-04-28T07:16:11.970Z,15.27
2019-04-28T07:18:41.051Z,15.39
2019-04-28T07:21:17.428Z,15.43
2019-04-28T07:23:47.102Z,15.54
2019-04-28T07:26:16.325Z,15.55
2019-04-28T07:28:45.447Z,15.63
2019-04-28T07:31:14.736Z,15.62
2019-04-28T07:33:43.777Z,15.59
2019-04-28T07:36:13.007Z,15.53
2019-04-28T07:38:42.106Z,15.53
2019-04-28T07:41:11.394Z,15.53
2019-04-28T07:43:40.613Z,15.21
2019-04-28T07:46:09.708Z,15.66
2019-04-28T07:48:38.812Z,15.67
2019-04-28T07:51:09.118Z,15.68
2019-04-28T07:53:43.567Z,15.77
2019-04-28T07:56:12.707Z,15.85
2019-04-28T07:58:41.959Z,15.97
2019-04-28T08:01:13.058Z,16.04
2019-04-28T08:03:49.291Z,16.10
2019-04-28T08:06:13.311Z,16.11
2019-04-28T08:08:42.460Z,16.07
2019-04-28T08:11:11.788Z,16.08
2019-04-28T08:13:41.042Z,16.27
2019-04-28T08:16:10.719Z,16.55
2019-04-28T08:18:40.034Z,16.91
2019-04-28T08:21:12.473Z,17.10
2019-04-28T08:23:47.446Z,17.28
2019-04-28T08:26:12.378Z,17.35
2019-04-28T08:28:41.547Z,17.58
2019-04-28T08:31:12.340Z,18.23
2019-04-28T08:33:48.341Z,18.91
2019-04-28T08:36:18.038Z,19.01
2019-04-28T08:38:49.093Z,19.39
2019-04-28T08:41:18.463Z,20.15
2019-04-28T08:43:47.538Z,20.18
2019-04-28T08:46:16.617Z,20.31
2019-04-28T08:48:45.822Z,21.16
2019-04-28T08:51:14.937Z,22.05
2019-04-28T08:53:44.401Z,22.36
2019-04-28T08:56:13.693Z,22.38
2019-04-28T08:58:43.156Z,22.11
2019-04-28T09:01:20.218Z,21.85
2019-04-28T09:03:50.091Z,21.74
2019-04-28T09:06:26.653Z,21.67
2019-04-28T09:08:58.996Z,21.64
2019-04-28T09:11:39.499Z,21.47
2019-04-28T09:14:09.276Z,21.32
2019-04-28T09:16:49.395Z,21.73
2019-04-28T09:19:18.556Z,22.14
2019-04-28T09:21:47.733Z,22.00
2019-04-28T09:24:17.173Z,22.56
2019-04-28T09:26:46.669Z,23.39
2019-04-28T09:29:15.849Z,23.38
2019-04-28T09:31:44.939Z,23.12
2019-04-28T09:34:14.110Z,23.07
2019-04-28T09:36:43.462Z,23.25
2019-04-28T09:40:04.924Z,23.42
2019-04-28T09:42:52.161Z,23.45
2019-04-28T09:45:37.229Z,23.08
2019-04-28T09:48:06.427Z,22.67
2019-04-28T09:50:35.683Z,22.41
2019-04-28T09:53:04.794Z,22.45
2019-04-28T09:55:33.874Z,22.51
2019-04-28T09:58:03.073Z,22.46
2019-04-28T10:00:32.594Z,22.23
2019-04-28T10:03:02.221Z,21.65
2019-04-28T10:05:31.345Z,21.19
2019-04-28T10:08:00.626Z,20.50
2019-04-28T10:10:29.911Z,20.14
2019-04-28T10:12:59.150Z,19.79
2019-04-28T10:15:28.329Z,19.68
2019-04-28T10:17:57.559Z,19.63
2019-04-28T10:20:26.708Z,19.70
2019-04-28T10:22:55.897Z,19.67
2019-04-28T10:25:25.075Z,19.65
2019-04-28T10:27:54.298Z,19.54
2019-04-28T10:30:23.445Z,19.48
2019-04-28T10:32:52.833Z,19.66
2019-04-28T10:35:22.208Z,19.82
2019-04-28T10:37:54.041Z,20.02
2019-04-28T10:40:38.826Z,20.43
2019-04-28T10:43:07.990Z,20.78
2019-04-28T10:45:46.740Z,21.67
2019-04-28T10:48:15.922Z,21.95
2019-04-28T10:50:45.510Z,22.02
2019-04-28T10:53:14.650Z,22.15
2019-04-28T10:55:43.753Z,22.19
2019-04-28T10:58:12.914Z,22.16
2019-04-28T11:00:42.339Z,22.06
2019-04-28T11:03:11.533Z,22.01
2019-04-28T11:05:56.878Z,22.09
2019-04-28T11:08:33.744Z,22.16
2019-04-28T11:11:09.467Z,22.29
2019-04-28T11:13:38.818Z,22.46
2019-04-28T11:16:08.401Z,22.68
2019-04-28T11:18:37.617Z,23.60
2019-04-28T11:21:06.835Z,24.58
2019-04-28T11:23:36.025Z,25.01
2019-04-28T11:26:05.240Z,25.37
2019-04-28T11:28:34.396Z,25.93
2019-04-28T11:31:03.650Z,26.66
2019-04-28T11:33:42.275Z,27.65
2019-04-28T11:36:11.334Z,27.94
2019-04-28T11:38:40.424Z,28.47
2019-04-28T11:41:11.586Z,28.77
2019-04-28T11:43:40.356Z,28.71
2019-04-28T11:46:11.079Z,28.32
2019-04-28T11:48:40.165Z,27.88
2019-04-28T11:51:09.414Z,27.36
2019-04-28T11:53:38.484Z,26.81
2019-04-28T11:56:07.630Z,26.66
2019-04-28T11:58:36.704Z,26.62
2019-04-28T12:01:07.495Z,26.65
2019-04-28T12:03:36.588Z,26.62
2019-04-28T12:06:05.766Z,26.42
2019-04-28T12:08:34.805Z,26.03
2019-04-28T12:11:12.308Z,25.83
2019-04-28T12:14:07.015Z,25.51
2019-04-28T12:16:54.033Z,25.24
2019-04-28T12:19:38.983Z,24.54
2019-04-28T12:22:08.360Z,24.63
2019-04-28T12:24:37.640Z,24.65
2019-04-28T12:27:07.090Z,24.49
2019-04-28T12:29:36.558Z,24.18
2019-04-28T12:32:06.396Z,23.95
2019-04-28T12:34:35.566Z,23.70
2019-04-28T12:37:06.040Z,23.32
2019-04-28T12:39:35.430Z,23.02
2019-04-28T12:42:05.033Z,22.63
2019-04-28T12:44:34.212Z,22.10
2019-04-28T12:47:04.028Z,21.30
2019-04-28T12:49:57.896Z,20.82
2019-04-28T12:52:26.984Z,20.19
2019-04-28T12:54:56.350Z,19.56
2019-04-28T12:57:25.856Z,19.13
2019-04-28T13:00:05.076Z,18.90
2019-04-28T13:02:59.520Z,18.75
2019-04-28T13:05:29.222Z,18.63
2019-04-28T13:07:58.679Z,18.45
2019-04-28T13:10:27.860Z,18.38
2019-04-28T13:12:59.063Z,18.30
2019-04-28T13:15:28.383Z,18.22
2019-04-28T13:17:57.473Z,18.16
2019-04-28T13:20:32.297Z,17.91
2019-04-28T13:23:01.619Z,17.69
2019-04-28T13:25:30.908Z,17.53
2019-04-28T13:28:00.268Z,17.55
2019-04-28T13:30:29.454Z,17.55
2019-04-28T13:32:58.714Z,16.72
2019-04-28T13:35:28.027Z,17.44
2019-04-28T13:37:57.133Z,17.47
2019-04-28T13:40:30.068Z,17.37
2019-04-28T13:42:59.180Z,17.55
2019-04-28T13:45:28.418Z,17.65
2019-04-28T13:47:57.510Z,17.71
2019-04-28T13:50:31.234Z,17.83
2019-04-28T13:53:00.295Z,17.91
2019-04-28T13:55:51.126Z,17.99
2019-04-28T13:58:22.406Z,17.97
2019-04-28T14:01:10.530Z,18.06
2019-04-28T14:04:01.699Z,18.09
2019-04-28T14:06:31.717Z,18.14
2019-04-28T14:09:00.782Z,18.17
2019-04-28T14:11:29.949Z,18.29
2019-04-28T14:13:59.067Z,18.30
2019-04-28T14:16:28.193Z,18.44
2019-04-28T14:18:57.329Z,18.59
2019-04-28T14:21:26.489Z,18.67
2019-04-28T14:23:55.549Z,18.77
2019-04-28T14:26:24.621Z,18.85
2019-04-28T14:28:53.793Z,18.98
2019-04-28T14:31:22.948Z,19.14
2019-04-28T14:33:51.989Z,19.32
2019-04-28T14:36:21.125Z,19.47
2019-04-28T14:38:50.361Z,19.62
2019-04-28T14:41:19.481Z,19.71
2019-04-28T14:43:48.665Z,19.82
2019-04-28T14:46:25.493Z,19.98
2019-04-28T14:48:54.952Z,20.12
2019-04-28T14:51:24.301Z,20.21
2019-04-28T14:53:53.488Z,20.38
2019-04-28T14:56:22.756Z,20.53
2019-04-28T14:58:51.929Z,20.66
2019-04-28T15:01:55.461Z,20.74
2019-04-28T15:04:35.401Z,20.77
2019-04-28T15:07:10.072Z,20.89
2019-04-28T15:09:57.140Z,21.03
2019-04-28T15:12:26.359Z,21.12
2019-04-28T15:14:55.612Z,21.18
2019-04-28T15:17:24.817Z,21.31
2019-04-28T15:19:54.087Z,21.41
2019-04-28T15:22:23.455Z,21.41
2019-04-28T15:24:52.717Z,21.43
2019-04-28T15:27:21.891Z,21.43
2019-04-28T15:45:57.344Z,20.99
2019-04-28T15:48:26.422Z,20.93
2019-04-28T15:50:55.690Z,20.98
2019-04-28T15:53:24.826Z,21.08
2019-04-28T15:56:09.096Z,21.11
2019-04-28T15:58:39.197Z,21.13
2019-04-28T16:01:08.526Z,21.19
2019-04-28T16:03:37.759Z,21.27
2019-04-28T16:06:06.843Z,21.26
2019-04-28T16:08:35.982Z,21.24
2019-04-28T16:11:05.083Z,21.07
2019-04-28T16:13:34.156Z,20.92
2019-04-28T16:16:03.466Z,20.75
2019-04-28T16:18:32.642Z,20.63
2019-04-28T16:21:01.816Z,20.45
2019-04-28T16:23:31.108Z,20.38
2019-04-28T16:26:00.194Z,20.28
2019-04-28T16:28:29.220Z,20.15
2019-04-28T16:30:58.318Z,19.99
2019-04-28T16:33:27.435Z,19.83
2019-04-28T16:35:56.575Z,19.66
2019-04-28T16:38:25.725Z,19.52
2019-04-28T16:40:54.924Z,19.40
2019-04-28T16:43:23.988Z,19.27
2019-04-28T16:45:53.005Z,19.13
2019-04-28T16:48:22.099Z,19.00
2019-04-28T16:50:51.098Z,18.87
2019-04-28T16:53:20.211Z,18.78
2019-04-28T16:56:06.665Z,18.65
2019-04-28T16:58:53.124Z,18.52
2019-04-28T17:01:41.373Z,18.42
2019-04-28T17:04:10.463Z,18.35
2019-04-28T17:06:39.642Z,18.31
2019-04-28T17:09:08.991Z,18.24
2019-04-28T17:11:38.080Z,18.18
2019-04-28T17:14:07.261Z,18.15
2019-04-28T17:16:36.346Z,18.12
2019-04-28T17:19:05.449Z,18.06
2019-04-28T17:21:34.503Z,18.03
2019-04-28T17:24:03.625Z,17.99
2019-04-28T17:26:32.705Z,17.96
2019-04-28T17:29:04.508Z,17.93
2019-04-28T17:31:33.632Z,17.88
2019-04-28T17:34:03.053Z,17.82
2019-04-28T17:36:32.136Z,17.76
2019-04-28T17:39:06.460Z,17.72
2019-04-28T17:41:34.784Z,17.67
2019-04-28T17:44:03.973Z,17.60
2019-04-28T17:46:33.113Z,17.55
2019-04-28T17:49:02.276Z,17.49
2019-04-28T17:51:31.381Z,17.43
2019-04-28T17:54:00.493Z,17.37
2019-04-28T17:56:29.616Z,17.29
2019-04-28T17:58:58.783Z,17.23
2019-04-28T18:01:52.847Z,17.19
2019-04-28T18:04:51.967Z,17.14
2019-04-28T18:07:32.530Z,17.05
2019-04-28T18:10:01.669Z,16.96
2019-04-28T18:12:30.835Z,16.92
2019-04-28T18:15:09.148Z,16.88
2019-04-28T18:18:00.133Z,16.84
2019-04-28T18:20:29.243Z,16.80
2019-04-28T18:22:58.389Z,16.74
2019-04-28T18:25:27.576Z,16.68
2019-04-28T18:27:56.700Z,16.62
2019-04-28T18:30:27.649Z,16.55
2019-04-28T18:33:18.434Z,16.49
2019-04-28T18:36:02.714Z,16.43
2019-04-28T18:38:55.678Z,16.32
2019-04-28T18:41:49.506Z,16.23
2019-04-28T18:44:20.578Z,16.15
2019-04-28T18:46:49.738Z,16.02
2019-04-28T18:49:18.844Z,15.94
2019-04-28T18:51:47.906Z,15.86
2019-04-28T18:54:17.020Z,15.78
2019-04-28T18:56:46.118Z,15.72
2019-04-28T18:59:15.348Z,15.65
2019-04-28T19:02:00.125Z,15.59
2019-04-28T19:04:29.234Z,15.52
2019-04-28T19:07:05.418Z,15.46
2019-04-28T19:09:51.458Z,15.39
2019-04-28T19:12:42.676Z,15.32
2019-04-28T19:15:29.543Z,15.25
2019-04-28T19:18:04.580Z,15.20
2019-04-28T19:20:33.598Z,15.08
2019-04-28T19:23:02.641Z,15.01
2019-04-28T19:25:31.647Z,14.98
2019-04-28T19:28:00.679Z,14.96
2019-04-28T19:30:29.771Z,14.94
2019-04-28T19:32:58.940Z,14.90
2019-04-28T19:35:28.016Z,14.88
2019-04-28T19:37:57.116Z,14.86
2019-04-28T19:40:26.121Z,14.81
2019-04-28T19:42:55.249Z,14.77
2019-04-28T19:45:24.263Z,14.72
2019-04-28T19:47:53.370Z,14.66
2019-04-28T19:50:22.531Z,14.59
2019-04-28T19:52:51.577Z,14.57
2019-04-28T19:55:24.755Z,14.60
2019-04-28T19:58:05.886Z,14.61
2019-04-28T20:00:48.098Z,14.64
2019-04-28T20:03:17.248Z,14.67
2019-04-28T20:05:46.285Z,14.72
2019-04-28T20:08:15.281Z,14.77
2019-04-28T20:10:44.312Z,14.83
2019-04-28T20:13:13.357Z,14.89
2019-04-28T20:15:42.429Z,14.93
2019-04-28T20:18:11.495Z,14.95
2019-04-28T20:20:40.587Z,14.95
2019-04-28T20:23:09.670Z,14.91
2019-04-28T20:25:38.715Z,14.91
2019-04-28T20:28:07.797Z,14.93
2019-04-28T20:30:36.861Z,14.93
2019-04-28T20:33:07.572Z,14.93
2019-04-28T20:35:40.004Z,14.97
2019-04-28T20:38:28.005Z,15.00
2019-04-28T20:41:16.073Z,15.03
2019-04-28T20:43:45.130Z,15.03
2019-04-28T20:46:14.206Z,15.06
2019-04-28T20:48:43.270Z,15.02
2019-04-28T20:51:12.411Z,14.99
2019-04-28T20:53:41.445Z,14.96
2019-04-28T20:56:10.502Z,14.93
2019-04-28T20:58:39.570Z,14.91
2019-04-28T21:01:08.595Z,14.89
2019-04-28T21:03:38.616Z,14.83
2019-04-28T21:06:07.859Z,14.79
2019-04-28T21:08:38.138Z,14.74
2019-04-28T21:11:07.198Z,14.70
2019-04-28T21:13:36.237Z,14.69
2019-04-28T21:16:05.323Z,14.70
2019-04-28T21:18:34.376Z,14.65
2019-04-28T21:21:03.403Z,14.61
2019-04-28T21:23:32.435Z,14.56
2019-04-28T21:26:01.526Z,14.54
2019-04-28T21:28:30.530Z,14.53
2019-04-28T21:30:59.612Z,14.51
2019-04-28T21:33:28.627Z,14.47
2019-04-28T21:35:57.723Z,14.42
2019-04-28T21:38:26.780Z,14.36
2019-04-28T21:40:55.872Z,14.31
2019-04-28T21:43:48.993Z,14.26
2019-04-28T21:46:45.822Z,14.20
2019-04-28T21:49:26.418Z,14.12
2019-04-28T21:51:55.459Z,14.01
2019-04-28T21:54:24.545Z,13.96
2019-04-28T21:56:53.635Z,13.91
2019-04-28T21:59:22.626Z,13.86
2019-04-28T22:01:51.711Z,13.81
2019-04-28T22:04:20.744Z,13.78
2019-04-28T22:06:49.774Z,13.73
2019-04-28T22:09:18.938Z,13.70
2019-04-28T22:11:48.022Z,13.63
2019-04-28T22:14:17.084Z,13.58
2019-04-28T22:16:46.120Z,13.54
2019-04-28T22:19:15.154Z,13.51
2019-04-28T22:21:44.165Z,13.46
2019-04-28T22:24:22.563Z,13.42
2019-04-28T22:26:53.499Z,13.38
2019-04-28T22:29:24.184Z,13.34
2019-04-28T22:31:53.188Z,13.27
2019-04-28T22:34:22.215Z,13.19
2019-04-28T22:36:51.273Z,13.14
2019-04-28T22:39:20.322Z,13.10
2019-04-28T22:41:49.535Z,13.04
2019-04-28T22:44:18.633Z,13.02
2019-04-28T22:46:47.727Z,12.96
2019-04-28T22:49:16.873Z,12.90
2019-04-28T22:51:46.092Z,12.88
2019-04-28T22:54:20.879Z,12.86
2019-04-28T22:56:59.536Z,12.82
2019-04-28T22:59:32.579Z,12.73
2019-04-28T23:02:15.832Z,12.65
2019-04-28T23:05:18.908Z,12.59
2019-04-28T23:07:47.927Z,12.51
2019-04-28T23:10:16.952Z,12.44
2019-04-28T23:12:47.014Z,12.44
2019-04-28T23:15:16.106Z,12.44
2019-04-28T23:17:45.103Z,12.43
2019-04-28T23:20:14.424Z,12.42
2019-04-28T23:22:47.540Z,12.42
2019-04-28T23:25:16.581Z,12.40
2019-04-28T23:27:45.595Z,12.38
2019-04-28T23:30:33.919Z,12.35
2019-04-28T23:33:02.921Z,12.34
2019-04-28T23:35:32.048Z,12.33
2019-04-28T23:38:01.108Z,12.31
2019-04-28T23:40:30.139Z,12.29
2019-04-28T23:43:04.098Z,12.27
2019-04-28T23:45:33.119Z,12.24
2019-04-28T23:48:02.140Z,12.21
2019-04-28T23:50:43.245Z,12.18
2019-04-28T23:53:15.257Z,12.16
2019-04-28T23:55:44.331Z,12.11
2019-04-28T23:58:15.727Z,12.11
